createdAt,value
2018-12-27T00:00:50.262Z,97.44
2018-12-27T00:03:21.143Z,97.45
2018-12-27T00:05:52.366Z,97.40
2018-12-27T00:08:23.624Z,97.61
2018-12-27T00:10:54.462Z,97.92
2018-12-27T00:13:25.330Z,98.15
2018-12-27T00:15:56.365Z,98.38
2018-12-27T00:18:27.245Z,98.53
2018-12-27T00:20:58.279Z,98.70
2018-12-27T00:23:29.248Z,98.66
2018-12-27T00:26:00.255Z,98.68
2018-12-27T00:28:31.444Z,98.75
2018-12-27T00:31:02.448Z,98.95
2018-12-27T00:33:33.668Z,99.21
2018-12-27T00:36:05.527Z,99.19
2018-12-27T00:38:36.851Z,99.23
2018-12-27T00:41:08.233Z,99.25
2018-12-27T00:43:39.233Z,99.40
2018-12-27T00:46:10.657Z,99.50
2018-12-27T00:49:00.240Z,99.85
2018-12-27T00:54:07.186Z,100.00
2018-12-27T00:59:14.360Z,100.00
2018-12-27T01:01:45.425Z,100.00
2018-12-27T01:04:16.477Z,100.00
2018-12-27T01:06:47.531Z,100.00
2018-12-27T01:09:18.645Z,100.00
2018-12-27T01:11:49.725Z,100.00
2018-12-27T01:14:21.068Z,100.00
2018-12-27T01:16:52.476Z,100.00
2018-12-27T01:19:23.601Z,100.00
2018-12-27T01:21:54.748Z,100.00
2018-12-27T01:24:44.675Z,100.00
2018-12-27T01:27:15.904Z,100.00
2018-12-27T01:30:06.067Z,100.00
2018-12-27T01:32:37.865Z,100.00
2018-12-27T01:35:09.161Z,100.00
2018-12-27T01:37:40.484Z,100.00
2018-12-27T01:40:11.597Z,100.00
2018-12-27T01:42:42.621Z,100.00
2018-12-27T01:45:13.965Z,100.00
2018-12-27T01:47:45.281Z,100.00
2018-12-27T01:50:16.266Z,100.00
2018-12-27T01:52:47.436Z,100.00
2018-12-27T01:55:19.021Z,100.00
2018-12-27T01:57:50.456Z,100.00
2018-12-27T02:00:21.562Z,100.00
2018-12-27T02:02:52.582Z,100.00
2018-12-27T02:05:23.784Z,100.00
2018-12-27T02:07:55.516Z,100.00
2018-12-27T02:10:26.524Z,100.00
2018-12-27T02:13:16.135Z,100.00
2018-12-27T02:15:47.500Z,100.00
2018-12-27T02:18:18.694Z,100.00
2018-12-27T02:20:50.537Z,100.00
2018-12-27T02:23:21.608Z,100.00
2018-12-27T02:26:03.216Z,100.00
2018-12-27T02:28:36.067Z,100.00
2018-12-27T02:33:43.617Z,100.00
2018-12-27T02:36:14.742Z,100.00
2018-12-27T02:38:46.172Z,100.00
2018-12-27T02:41:17.198Z,100.00
2018-12-27T02:46:25.473Z,100.00
2018-12-27T02:48:56.509Z,100.00
2018-12-27T02:51:27.587Z,100.00
2018-12-27T02:54:17.213Z,100.00
2018-12-27T02:56:48.377Z,100.00
2018-12-27T02:59:19.434Z,100.00
2018-12-27T03:01:50.529Z,100.00
2018-12-27T03:04:21.644Z,100.00
2018-12-27T03:06:52.667Z,100.00
2018-12-27T03:09:24.070Z,100.00
2018-12-27T03:11:55.390Z,100.00
2018-12-27T03:14:26.765Z,100.00
2018-12-27T03:16:58.240Z,100.00
2018-12-27T03:19:29.277Z,100.00
2018-12-27T03:22:00.324Z,100.00
2018-12-27T03:24:31.472Z,100.00
2018-12-27T03:27:02.503Z,100.00
2018-12-27T03:32:10.376Z,100.00
2018-12-27T03:37:17.694Z,100.00
2018-12-27T03:39:49.205Z,100.00
2018-12-27T03:42:21.549Z,100.00
2018-12-27T03:44:52.529Z,100.00
2018-12-27T03:47:23.598Z,100.00
2018-12-27T03:49:54.605Z,100.00
2018-12-27T03:55:02.132Z,100.00
2018-12-27T03:57:33.604Z,100.00
2018-12-27T04:00:04.740Z,100.00
2018-12-27T04:02:36.036Z,100.00
2018-12-27T04:05:07.575Z,100.00
2018-12-27T04:07:38.625Z,100.00
2018-12-27T04:10:09.641Z,100.00
2018-12-27T04:12:40.725Z,100.00
2018-12-27T04:15:11.897Z,100.00
2018-12-27T04:20:19.240Z,100.00
2018-12-27T04:22:50.387Z,100.00
2018-12-27T04:25:21.393Z,100.00
2018-12-27T04:27:52.355Z,100.00
2018-12-27T04:33:39.182Z,100.00
2018-12-27T04:39:12.559Z,100.00
2018-12-27T04:42:21.903Z,100.00
2018-12-27T04:45:03.804Z,100.00
2018-12-27T04:47:35.139Z,100.00
2018-12-27T04:50:06.749Z,100.00
2018-12-27T04:52:37.997Z,100.00
2018-12-27T04:55:09.259Z,100.00
2018-12-27T05:00:16.455Z,100.00
2018-12-27T05:02:47.537Z,100.00
2018-12-27T05:05:18.384Z,100.00
2018-12-27T05:07:49.300Z,100.00
2018-12-27T05:10:20.407Z,100.00
2018-12-27T05:12:51.488Z,100.00
2018-12-27T05:15:22.535Z,100.00
2018-12-27T05:17:53.439Z,100.00
2018-12-27T05:20:24.396Z,100.00
2018-12-27T05:22:55.358Z,100.00
2018-12-27T05:25:26.260Z,100.00
2018-12-27T05:30:44.061Z,100.00
2018-12-27T05:33:15.194Z,100.00
2018-12-27T05:35:46.173Z,100.00
2018-12-27T05:38:17.056Z,100.00
2018-12-27T05:40:48.364Z,100.00
2018-12-27T05:43:19.223Z,100.00
2018-12-27T05:45:50.331Z,100.00
2018-12-27T05:48:21.426Z,100.00
2018-12-27T05:50:52.308Z,100.00
2018-12-27T05:53:23.668Z,100.00
2018-12-27T05:55:54.530Z,100.00
2018-12-27T05:58:25.430Z,100.00
2018-12-27T06:00:56.392Z,100.00
2018-12-27T06:03:27.351Z,100.00
2018-12-27T06:06:17.312Z,100.00
2018-12-27T06:08:49.424Z,100.00
2018-12-27T06:11:20.275Z,100.00
2018-12-27T06:13:51.214Z,100.00
2018-12-27T06:16:22.130Z,100.00
2018-12-27T06:18:53.543Z,100.00
2018-12-27T06:21:24.512Z,100.00
2018-12-27T06:23:55.385Z,100.00
2018-12-27T06:26:26.526Z,100.00
2018-12-27T06:28:57.484Z,100.00
2018-12-27T06:34:05.192Z,100.00
2018-12-27T06:36:36.304Z,100.00
2018-12-27T06:42:23.344Z,100.00
2018-12-27T06:44:54.213Z,100.00
2018-12-27T06:47:25.123Z,100.00
2018-12-27T06:49:56.365Z,100.00
2018-12-27T06:52:27.332Z,100.00
2018-12-27T06:54:58.376Z,100.00
2018-12-27T06:57:29.362Z,100.00
2018-12-27T07:00:00.406Z,100.00
2018-12-27T07:02:31.389Z,100.00
2018-12-27T07:05:02.263Z,100.00
2018-12-27T07:07:33.498Z,100.00
2018-12-27T07:10:04.438Z,100.00
2018-12-27T07:12:35.337Z,100.00
2018-12-27T07:15:06.612Z,100.00
2018-12-27T07:17:37.866Z,100.00
2018-12-27T07:20:09.420Z,100.00
2018-12-27T07:22:40.437Z,100.00
2018-12-27T07:25:11.338Z,100.00
2018-12-27T07:27:42.395Z,100.00
2018-12-27T07:30:13.308Z,100.00
2018-12-27T07:32:44.417Z,100.00
2018-12-27T07:35:15.492Z,99.97
2018-12-27T07:37:46.433Z,99.83
2018-12-27T07:40:17.488Z,99.73
2018-12-27T07:42:48.396Z,99.74
2018-12-27T07:45:19.355Z,99.77
2018-12-27T07:47:50.318Z,99.62
2018-12-27T07:50:21.400Z,99.56
2018-12-27T07:52:52.461Z,99.50
2018-12-27T07:55:23.412Z,99.53
2018-12-27T07:57:54.251Z,99.43
2018-12-27T08:00:25.486Z,99.31
2018-12-27T08:02:56.397Z,99.21
2018-12-27T08:05:27.509Z,99.26
2018-12-27T08:07:58.397Z,99.24
2018-12-27T08:10:29.402Z,99.24
2018-12-27T08:13:18.996Z,99.19
2018-12-27T08:15:50.547Z,99.17
2018-12-27T08:18:21.551Z,99.06
2018-12-27T08:20:52.449Z,99.03
2018-12-27T08:23:23.373Z,99.02
2018-12-27T08:25:54.867Z,98.89
2018-12-27T08:28:26.178Z,98.82
2018-12-27T08:30:57.394Z,98.76
2018-12-27T08:33:28.741Z,98.72
2018-12-27T08:36:00.164Z,98.59
2018-12-27T08:38:31.882Z,98.52
2018-12-27T08:41:22.400Z,98.42
2018-12-27T08:43:53.630Z,98.42
2018-12-27T08:46:24.503Z,98.09
2018-12-27T08:48:55.482Z,97.88
2018-12-27T08:51:26.485Z,97.80
2018-12-27T08:53:57.503Z,97.67
2018-12-27T08:56:28.457Z,97.41
2018-12-27T08:58:59.332Z,97.13
2018-12-27T09:01:30.198Z,96.87
2018-12-27T09:04:01.363Z,96.84
2018-12-27T09:06:32.199Z,96.92
2018-12-27T09:11:54.557Z,96.90
2018-12-27T09:14:25.714Z,96.96
2018-12-27T09:16:57.734Z,96.93
2018-12-27T09:19:47.798Z,96.86
2018-12-27T09:22:21.912Z,96.64
2018-12-27T09:24:54.285Z,96.72
2018-12-27T09:27:25.190Z,96.65
2018-12-27T09:29:56.157Z,96.56
2018-12-27T09:32:27.078Z,96.32
2018-12-27T09:34:59.337Z,96.21
2018-12-27T09:37:30.564Z,96.16
2018-12-27T09:42:53.386Z,95.82
2018-12-27T09:45:24.285Z,95.73
2018-12-27T09:47:55.794Z,95.77
2018-12-27T09:51:06.912Z,95.56
2018-12-27T09:53:49.720Z,95.47
2018-12-27T09:56:21.510Z,95.47
2018-12-27T09:58:52.809Z,95.49
2018-12-27T10:01:42.661Z,95.20
2018-12-27T10:04:13.706Z,95.20
2018-12-27T10:06:45.010Z,95.23
2018-12-27T10:09:17.318Z,95.03
2018-12-27T10:11:48.248Z,94.53
2018-12-27T10:14:19.122Z,94.12
2018-12-27T10:16:50.133Z,93.62
2018-12-27T10:19:21.354Z,93.62
2018-12-27T10:24:47.657Z,93.62
2018-12-27T10:27:19.028Z,93.49
2018-12-27T10:29:50.190Z,93.58
2018-12-27T10:32:21.065Z,93.68
2018-12-27T10:34:52.428Z,93.54
2018-12-27T10:37:23.444Z,93.48
2018-12-27T10:39:54.488Z,92.89
2018-12-27T10:42:26.091Z,92.40
2018-12-27T10:44:57.322Z,92.41
2018-12-27T10:47:30.071Z,92.27
2018-12-27T10:50:01.412Z,92.04
2018-12-27T10:55:09.802Z,91.96
2018-12-27T10:57:42.014Z,91.74
2018-12-27T11:00:14.079Z,91.49
2018-12-27T11:02:45.060Z,91.37
2018-12-27T11:05:16.353Z,91.12
2018-12-27T11:07:47.251Z,90.51
2018-12-27T11:10:18.809Z,90.33
2018-12-27T11:12:49.990Z,90.07
2018-12-27T11:15:20.965Z,89.83
2018-12-27T11:17:52.085Z,89.24
2018-12-27T11:20:23.092Z,88.04
2018-12-27T11:23:14.143Z,87.76
2018-12-27T11:25:45.440Z,88.00
2018-12-27T11:28:16.726Z,86.54
2018-12-27T11:30:48.706Z,86.46
2018-12-27T11:33:19.861Z,85.97
2018-12-27T11:35:55.703Z,86.36
2018-12-27T11:38:24.447Z,86.15
2018-12-27T11:40:57.737Z,85.80
2018-12-27T11:43:29.831Z,85.86
2018-12-27T11:46:01.189Z,85.63
2018-12-27T11:48:32.851Z,85.09
2018-12-27T11:51:04.233Z,83.64
2018-12-27T11:53:35.781Z,83.28
2018-12-27T11:56:08.121Z,83.79
2018-12-27T11:58:39.473Z,83.36
2018-12-27T12:01:10.634Z,83.13
2018-12-27T12:03:41.768Z,82.42
2018-12-27T12:06:13.116Z,81.95
2018-12-27T12:08:44.770Z,80.20
2018-12-27T12:11:16.607Z,78.15
2018-12-27T12:13:48.003Z,78.78
2018-12-27T12:16:19.800Z,77.80
2018-12-27T12:18:51.211Z,77.40
2018-12-27T12:21:24.078Z,76.79
2018-12-27T12:23:56.402Z,76.22
2018-12-27T12:26:27.487Z,75.91
2018-12-27T12:28:58.841Z,76.40
2018-12-27T12:31:30.469Z,75.75
2018-12-27T12:34:01.753Z,75.74
2018-12-27T12:39:24.445Z,76.12
2018-12-27T12:41:55.515Z,76.37
2018-12-27T12:44:26.621Z,76.19
2018-12-27T12:46:58.551Z,76.32
2018-12-27T12:52:20.716Z,74.85
2018-12-27T12:55:10.907Z,72.68
2018-12-27T12:58:09.286Z,72.68
2018-12-27T13:00:40.398Z,71.57
2018-12-27T13:03:11.597Z,70.80
2018-12-27T13:05:42.916Z,69.18
2018-12-27T13:08:14.178Z,69.31
2018-12-27T13:10:45.716Z,68.23
2018-12-27T13:13:17.208Z,68.55
2018-12-27T13:15:48.657Z,69.67
2018-12-27T13:18:19.581Z,70.59
2018-12-27T13:20:50.857Z,72.14
2018-12-27T13:23:22.237Z,72.51
2018-12-27T13:25:53.197Z,72.64
2018-12-27T13:28:43.132Z,73.28
2018-12-27T13:34:22.274Z,73.90
2018-12-27T13:36:53.492Z,74.45
2018-12-27T13:39:24.833Z,75.01
2018-12-27T13:41:56.517Z,75.26
2018-12-27T13:44:27.533Z,75.10
2018-12-27T13:46:58.910Z,74.65
2018-12-27T13:49:30.367Z,74.53
2018-12-27T13:52:01.321Z,74.37
2018-12-27T13:54:32.434Z,74.66
2018-12-27T13:57:03.388Z,75.26
2018-12-27T14:02:11.564Z,75.92
2018-12-27T14:04:42.439Z,76.63
2018-12-27T14:07:13.434Z,76.92
2018-12-27T14:10:03.267Z,77.77
2018-12-27T14:12:34.295Z,77.77
2018-12-27T14:15:05.281Z,77.64
2018-12-27T14:17:36.166Z,78.00
2018-12-27T14:20:08.002Z,78.02
2018-12-27T14:25:49.093Z,78.19
2018-12-27T14:28:20.310Z,78.44
2018-12-27T14:30:53.125Z,78.62
2018-12-27T14:33:25.569Z,78.91
2018-12-27T14:35:56.506Z,79.02
2018-12-27T14:38:27.497Z,79.22
2018-12-27T14:40:58.472Z,79.38
2018-12-27T14:43:29.333Z,79.59
2018-12-27T14:46:00.468Z,79.65
2018-12-27T14:48:31.361Z,79.89
2018-12-27T14:51:21.219Z,80.14
2018-12-27T14:53:52.290Z,80.46
2018-12-27T14:56:23.521Z,80.97
2018-12-27T14:58:54.699Z,81.27
2018-12-27T15:01:25.668Z,81.59
2018-12-27T15:03:57.019Z,81.95
2018-12-27T15:06:28.205Z,82.17
2018-12-27T15:09:17.809Z,82.38
2018-12-27T15:11:49.600Z,82.43
2018-12-27T15:14:20.898Z,82.64
2018-12-27T15:16:52.388Z,82.84
2018-12-27T15:19:23.672Z,83.23
2018-12-27T15:21:54.632Z,83.54
2018-12-27T15:24:25.777Z,84.08
2018-12-27T15:26:57.000Z,84.11
2018-12-27T15:29:28.211Z,84.41
2018-12-27T15:31:59.383Z,84.90
2018-12-27T15:34:30.533Z,85.23
2018-12-27T15:37:01.595Z,85.42
2018-12-27T15:39:32.518Z,85.83
2018-12-27T15:42:03.655Z,85.80
2018-12-27T15:44:34.554Z,85.79
2018-12-27T15:47:06.054Z,85.97
2018-12-27T15:49:56.086Z,86.47
2018-12-27T15:52:27.538Z,86.47
2018-12-27T15:54:58.468Z,86.13
2018-12-27T15:57:30.328Z,86.39
2018-12-27T16:00:01.743Z,86.60
2018-12-27T16:02:53.038Z,86.56
2018-12-27T16:05:24.561Z,87.24
2018-12-27T16:07:55.521Z,87.69
2018-12-27T16:10:26.495Z,87.42
2018-12-27T16:12:57.701Z,87.53
2018-12-27T16:15:29.171Z,87.45
2018-12-27T16:18:00.212Z,87.06
2018-12-27T16:20:31.249Z,87.86
2018-12-27T16:23:02.406Z,87.97
2018-12-27T16:25:33.423Z,87.79
2018-12-27T16:28:09.460Z,87.87
2018-12-27T16:30:40.538Z,88.02
2018-12-27T16:33:11.778Z,87.92
2018-12-27T16:36:01.662Z,88.13
2018-12-27T16:38:33.109Z,88.13
2018-12-27T16:41:04.587Z,88.10
2018-12-27T16:43:35.521Z,87.99
2018-12-27T16:46:06.491Z,88.32
2018-12-27T16:48:37.837Z,88.26
2018-12-27T16:51:09.155Z,88.30
2018-12-27T16:53:40.143Z,88.22
2018-12-27T16:56:11.146Z,88.10
2018-12-27T16:58:42.118Z,87.73
2018-12-27T17:01:13.297Z,87.48
2018-12-27T17:03:44.860Z,87.22
2018-12-27T17:06:16.106Z,87.03
2018-12-27T17:08:47.529Z,86.53
2018-12-27T17:11:18.492Z,86.53
2018-12-27T17:13:49.649Z,86.33
2018-12-27T17:16:20.657Z,86.37
2018-12-27T17:18:51.944Z,86.28
2018-12-27T17:21:23.115Z,86.18
2018-12-27T17:23:54.537Z,86.18
2018-12-27T17:26:25.427Z,86.00
2018-12-27T17:28:56.526Z,85.91
2018-12-27T17:31:27.475Z,86.23
2018-12-27T17:37:00.707Z,86.49
2018-12-27T17:39:32.160Z,86.72
2018-12-27T17:44:40.363Z,87.37
2018-12-27T17:47:12.527Z,87.49
2018-12-27T17:49:43.564Z,87.89
2018-12-27T17:52:14.455Z,87.92
2018-12-27T17:54:45.582Z,88.08
2018-12-27T17:57:17.752Z,88.40
2018-12-27T17:59:48.976Z,88.71
2018-12-27T18:02:20.814Z,89.00
2018-12-27T18:04:52.384Z,89.27
2018-12-27T18:07:30.368Z,89.52
2018-12-27T18:18:13.276Z,89.53
2018-12-27T18:20:45.673Z,89.71
2018-12-27T18:26:26.540Z,90.28
2018-12-27T18:28:57.482Z,90.10
2018-12-27T18:31:28.589Z,90.24
2018-12-27T18:33:59.533Z,90.32
2018-12-27T18:36:30.477Z,90.30
2018-12-27T18:39:01.497Z,90.22
2018-12-27T18:41:33.503Z,90.16
2018-12-27T18:44:04.576Z,90.17
2018-12-27T18:46:36.758Z,90.09
2018-12-27T18:49:08.064Z,89.92
2018-12-27T18:51:39.352Z,90.05
2018-12-27T18:54:10.403Z,90.08
2018-12-27T18:56:41.581Z,90.16
2018-12-27T18:59:12.588Z,90.15
2018-12-27T19:01:44.822Z,90.12
2018-12-27T19:04:16.733Z,90.21
2018-12-27T19:06:49.025Z,90.16
2018-12-27T19:09:20.212Z,90.17
2018-12-27T19:12:28.335Z,90.34
2018-12-27T19:15:03.662Z,90.38
2018-12-27T19:17:56.895Z,90.45
2018-12-27T19:23:27.130Z,90.69
2018-12-27T19:25:58.344Z,90.73
2018-12-27T19:28:30.351Z,90.75
2018-12-27T19:31:01.288Z,90.91
2018-12-27T19:33:32.449Z,90.86
2018-12-27T19:36:03.519Z,90.79
2018-12-27T19:38:34.532Z,90.77
2018-12-27T19:41:05.705Z,90.70
2018-12-27T19:43:37.198Z,90.64
2018-12-27T19:46:08.617Z,90.60
2018-12-27T19:48:39.771Z,90.57
2018-12-27T19:51:11.324Z,90.44
2018-12-27T19:53:42.599Z,90.42
2018-12-27T19:56:13.990Z,90.29
2018-12-27T19:58:45.307Z,90.41
2018-12-27T20:01:16.655Z,90.14
2018-12-27T20:03:48.196Z,90.07
2018-12-27T20:06:20.318Z,90.12
2018-12-27T20:08:52.246Z,90.17
2018-12-27T20:14:39.323Z,90.57
2018-12-27T20:17:22.169Z,90.15
2018-12-27T20:19:54.613Z,90.25
2018-12-27T20:22:27.747Z,90.18
2018-12-27T20:25:00.187Z,90.15
2018-12-27T20:30:12.117Z,90.20
2018-12-27T20:32:44.571Z,90.24
2018-12-27T20:35:16.646Z,90.20
2018-12-27T20:37:49.443Z,90.24
2018-12-27T20:43:29.536Z,90.23
2018-12-27T20:49:14.251Z,90.18
2018-12-27T20:52:24.374Z,90.19
2018-12-27T20:55:16.456Z,90.01
2018-12-27T20:57:49.488Z,90.01
2018-12-27T21:00:22.406Z,90.08
2018-12-27T21:02:55.538Z,89.91
2018-12-27T21:05:28.877Z,89.90
2018-12-27T21:08:01.432Z,89.95
2018-12-27T21:10:34.137Z,89.99
2018-12-27T21:13:06.048Z,89.97
2018-12-27T21:15:38.411Z,90.06
2018-12-27T21:18:10.193Z,89.94
2018-12-27T21:23:52.305Z,89.95
2018-12-27T21:26:24.442Z,89.61
2018-12-27T21:29:18.741Z,89.61
2018-12-27T21:35:01.361Z,90.14
2018-12-27T21:37:33.185Z,89.85
2018-12-27T21:40:23.421Z,89.39
2018-12-27T21:42:55.204Z,89.39
2018-12-27T21:45:27.233Z,89.68
2018-12-27T21:47:58.969Z,89.65
2018-12-27T21:50:30.430Z,89.67
2018-12-27T21:58:48.602Z,88.85
2018-12-27T22:01:19.881Z,88.24
2018-12-27T22:03:51.271Z,88.00
2018-12-27T22:06:40.990Z,87.77
2018-12-27T22:09:32.553Z,87.77
2018-12-27T22:12:04.411Z,87.12
2018-12-27T22:14:37.847Z,86.83
2018-12-27T22:17:09.581Z,86.86
2018-12-27T22:19:41.118Z,86.66
2018-12-27T22:22:12.207Z,86.58
2018-12-27T22:25:02.472Z,86.47
2018-12-27T22:27:34.004Z,86.47
2018-12-27T22:30:05.472Z,86.27
2018-12-27T22:32:36.690Z,86.29
2018-12-27T22:35:08.052Z,86.22
2018-12-27T22:37:39.278Z,86.24
2018-12-27T22:43:25.880Z,86.06
2018-12-27T22:46:08.182Z,86.15
2018-12-27T22:51:16.652Z,86.04
2018-12-27T22:53:48.397Z,86.17
2018-12-27T22:56:19.409Z,86.25
2018-12-27T22:58:50.590Z,86.25
2018-12-27T23:04:18.370Z,86.07
2018-12-27T23:06:49.644Z,85.96
2018-12-27T23:09:21.200Z,85.99
2018-12-27T23:11:52.819Z,85.96
2018-12-27T23:14:42.884Z,85.98
2018-12-27T23:17:25.286Z,86.14
2018-12-27T23:19:56.363Z,86.14
2018-12-27T23:22:27.578Z,86.04
2018-12-27T23:24:58.473Z,85.96
2018-12-27T23:27:29.668Z,85.78
2018-12-27T23:30:00.712Z,85.70
2018-12-27T23:32:32.069Z,85.62
2018-12-27T23:35:03.464Z,85.61
2018-12-27T23:37:34.364Z,85.81
2018-12-27T23:43:00.945Z,85.20
2018-12-27T23:45:32.389Z,85.20
2018-12-27T23:48:03.659Z,85.25
2018-12-27T23:50:35.762Z,85.34
2018-12-27T23:56:08.194Z,84.80
2018-12-27T23:58:39.569Z,84.87
